createdAt,value
2017-11-03T00:00:05.538Z,16.97
2017-11-03T00:02:34.863Z,16.10
2017-11-03T00:05:04.109Z,17.60
2017-11-03T00:07:32.569Z,17.07
2017-11-03T00:10:01.058Z,16.80
2017-11-03T00:12:30.253Z,21.40
2017-11-03T00:14:59.504Z,16.57
2017-11-03T00:17:27.995Z,16.93
2017-11-03T00:19:56.496Z,20.10
2017-11-03T00:22:24.981Z,17.60
2017-11-03T00:25:03.785Z,18.67
2017-11-03T00:27:33.028Z,17.03
2017-11-03T00:30:01.507Z,19.90
2017-11-03T00:32:29.970Z,18.67
2017-11-03T00:34:59.164Z,20.90
2017-11-03T00:37:27.666Z,20.13
2017-11-03T00:39:56.170Z,16.00
2017-11-03T00:42:24.488Z,18.20
2017-11-03T00:44:53.188Z,21.40
2017-11-03T00:47:23.258Z,18.87
2017-11-03T00:49:51.768Z,18.23
2017-11-03T00:52:20.293Z,18.47
2017-11-03T00:54:49.564Z,17.30
2017-11-03T00:57:18.019Z,17.57
2017-11-03T00:59:46.530Z,15.93
2017-11-03T01:02:15.756Z,16.20
2017-11-03T01:04:49.995Z,19.53
2017-11-03T01:07:23.784Z,17.90
2017-11-03T01:09:53.205Z,18.00
2017-11-03T01:12:22.617Z,16.27
2017-11-03T01:14:52.122Z,17.10
2017-11-03T01:17:21.551Z,19.07
2017-11-03T01:19:51.015Z,21.80
2017-11-03T01:22:20.477Z,20.07
2017-11-03T01:24:49.978Z,22.43
2017-11-03T01:27:19.389Z,21.83
2017-11-03T01:29:48.813Z,22.27
2017-11-03T01:32:18.242Z,21.33
2017-11-03T01:34:47.662Z,20.97
2017-11-03T01:37:17.168Z,24.10
2017-11-03T01:39:46.621Z,21.43
2017-11-03T01:42:16.379Z,25.03
2017-11-03T01:44:45.865Z,23.73
2017-11-03T01:47:15.433Z,23.70
2017-11-03T01:49:44.853Z,23.07
2017-11-03T01:52:14.278Z,23.40
2017-11-03T01:54:43.729Z,24.30
2017-11-03T01:57:13.156Z,23.00
2017-11-03T01:59:42.590Z,25.27
2017-11-03T02:02:12.043Z,24.40
2017-11-03T02:04:41.483Z,23.50
2017-11-03T02:07:10.933Z,23.50
2017-11-03T02:09:40.408Z,22.03
2017-11-03T02:12:09.925Z,22.63
2017-11-03T02:14:39.389Z,23.60
2017-11-03T02:17:08.836Z,24.97
2017-11-03T02:19:37.996Z,23.53
2017-11-03T02:22:07.128Z,21.30
2017-11-03T02:24:36.611Z,22.10
2017-11-03T02:27:05.779Z,21.00
2017-11-03T02:29:35.247Z,22.53
2017-11-03T02:32:04.705Z,21.10
2017-11-03T02:34:34.205Z,20.77
2017-11-03T02:37:03.648Z,21.00
2017-11-03T02:39:33.133Z,20.70
2017-11-03T02:42:01.643Z,20.00
2017-11-03T02:44:30.107Z,21.87
2017-11-03T02:46:58.560Z,22.00
2017-11-03T02:49:27.845Z,21.63
2017-11-03T02:51:56.273Z,20.80
2017-11-03T02:54:24.357Z,23.30
2017-11-03T02:56:52.866Z,21.70
2017-11-03T02:59:21.343Z,20.57
2017-11-03T03:01:50.573Z,20.80
2017-11-03T03:04:19.084Z,20.10
2017-11-03T03:06:47.505Z,18.27
2017-11-03T03:09:15.983Z,21.90
2017-11-03T03:11:44.457Z,21.93
2017-11-03T03:14:12.548Z,19.70
2017-11-03T03:16:40.954Z,19.97
2017-11-03T03:19:09.142Z,18.80
2017-11-03T03:21:37.253Z,18.60
2017-11-03T03:24:05.709Z,20.60
2017-11-03T03:26:34.980Z,21.07
2017-11-03T03:29:04.058Z,17.97
2017-11-03T03:31:33.534Z,18.90
2017-11-03T03:34:03.043Z,19.17
2017-11-03T03:36:32.536Z,20.40
2017-11-03T03:39:01.629Z,19.20
2017-11-03T03:41:31.070Z,20.03
2017-11-03T03:44:00.543Z,21.73
2017-11-03T03:46:29.644Z,21.30
2017-11-03T03:48:59.016Z,19.80
2017-11-03T03:51:28.490Z,18.93
2017-11-03T03:53:57.919Z,21.13
2017-11-03T03:56:27.422Z,19.93
2017-11-03T03:58:56.880Z,18.80
2017-11-03T04:01:26.361Z,21.00
2017-11-03T04:03:55.870Z,21.20
2017-11-03T04:06:25.023Z,22.50
2017-11-03T04:08:54.481Z,21.67
2017-11-03T04:11:23.994Z,21.13
2017-11-03T04:13:53.419Z,19.40
2017-11-03T04:16:22.822Z,20.30
2017-11-03T04:18:52.306Z,18.67
2017-11-03T04:21:21.789Z,20.00
2017-11-03T04:23:51.360Z,22.57
2017-11-03T04:26:20.869Z,20.37
2017-11-03T04:28:49.964Z,20.87
2017-11-03T04:31:19.079Z,20.30
2017-11-03T04:33:48.197Z,19.03
2017-11-03T04:36:17.630Z,19.90
2017-11-03T04:38:46.716Z,15.90
2017-11-03T04:41:17.361Z,16.83
2017-11-03T04:43:46.863Z,16.03
2017-11-03T04:46:15.963Z,17.73
2017-11-03T04:48:45.486Z,17.47
2017-11-03T04:51:14.937Z,17.63
2017-11-03T04:53:44.382Z,16.77
2017-11-03T04:56:13.517Z,17.33
2017-11-03T04:58:43.755Z,17.00
2017-11-03T05:01:13.300Z,17.03
2017-11-03T05:06:45.014Z,15.23
2017-11-03T05:09:14.517Z,15.87
2017-11-03T05:11:44.058Z,17.80
2017-11-03T05:14:13.572Z,17.43
2017-11-03T05:16:43.069Z,17.93
2017-11-03T05:19:12.541Z,17.80
2017-11-03T05:21:42.070Z,18.27
2017-11-03T05:24:11.575Z,17.80
2017-11-03T05:26:41.104Z,16.40
2017-11-03T05:29:10.628Z,15.60
2017-11-03T05:31:40.101Z,16.37
2017-11-03T05:34:09.758Z,15.83
2017-11-03T05:36:38.898Z,12.47
2017-11-03T05:39:08.363Z,15.03
2017-11-03T05:41:37.875Z,14.60
2017-11-03T05:44:06.371Z,16.60
2017-11-03T05:46:34.558Z,14.90
2017-11-03T05:49:02.993Z,16.73
2017-11-03T05:51:32.504Z,14.43
2017-11-03T05:54:00.684Z,14.67
2017-11-03T05:56:29.206Z,15.17
2017-11-03T05:58:58.455Z,15.20
2017-11-03T06:01:29.422Z,15.50
2017-11-03T06:03:58.945Z,15.30
2017-11-03T06:06:28.423Z,18.50
2017-11-03T06:08:57.918Z,17.13
2017-11-03T06:11:27.454Z,15.90
2017-11-03T06:13:56.955Z,15.93
2017-11-03T06:16:26.461Z,16.70
2017-11-03T06:18:55.975Z,16.17
2017-11-03T06:21:25.369Z,17.00
2017-11-03T06:23:54.559Z,16.77
2017-11-03T06:26:24.049Z,17.27
2017-11-03T06:28:53.530Z,16.20
2017-11-03T06:31:34.752Z,15.90
2017-11-03T06:34:04.242Z,15.53
2017-11-03T06:36:33.746Z,17.20
2017-11-03T06:39:02.852Z,17.27
2017-11-03T06:41:32.358Z,17.73
2017-11-03T06:44:01.512Z,16.50
2017-11-03T06:46:30.987Z,16.17
2017-11-03T06:49:00.469Z,16.67
2017-11-03T06:51:29.977Z,16.03
2017-11-03T06:53:59.108Z,15.50
2017-11-03T06:56:28.637Z,16.67
2017-11-03T06:58:57.108Z,15.47
2017-11-03T07:01:43.082Z,15.37
2017-11-03T07:04:11.241Z,15.17
2017-11-03T07:06:39.707Z,14.07
2017-11-03T07:09:08.209Z,11.87
2017-11-03T07:11:36.055Z,15.50
2017-11-03T07:14:04.535Z,15.10
2017-11-03T07:16:33.055Z,15.17
2017-11-03T07:19:01.551Z,14.90
2017-11-03T07:21:29.653Z,14.40
2017-11-03T07:23:58.918Z,15.93
2017-11-03T07:26:27.468Z,14.67
2017-11-03T07:28:55.981Z,13.63
2017-11-03T07:31:24.566Z,14.80
2017-11-03T07:33:53.071Z,17.77
2017-11-03T07:36:21.553Z,16.93
2017-11-03T07:38:50.033Z,14.90
2017-11-03T07:41:19.242Z,15.53
2017-11-03T07:43:47.749Z,15.10
2017-11-03T07:46:16.300Z,13.90
2017-11-03T07:48:46.982Z,15.10
2017-11-03T07:51:16.262Z,15.87
2017-11-03T07:53:44.744Z,17.77
2017-11-03T07:56:13.315Z,16.47
2017-11-03T07:58:41.886Z,15.00
2017-11-03T08:01:10.368Z,14.30
2017-11-03T08:03:39.601Z,16.73
2017-11-03T08:06:08.067Z,16.30
2017-11-03T08:08:36.590Z,16.70
2017-11-03T08:11:14.105Z,15.67
2017-11-03T08:13:42.635Z,14.63
2017-11-03T08:16:11.905Z,18.37
2017-11-03T08:18:42.129Z,16.87
2017-11-03T08:21:10.610Z,16.77
2017-11-03T08:23:39.842Z,17.57
2017-11-03T08:26:08.326Z,11.63
2017-11-03T08:28:36.814Z,14.80
2017-11-03T08:31:06.233Z,16.23
2017-11-03T08:33:35.472Z,20.10
2017-11-03T08:36:03.929Z,15.93
2017-11-03T08:38:33.211Z,18.13
2017-11-03T08:41:01.695Z,17.90
2017-11-03T08:43:30.176Z,19.70
2017-11-03T08:45:58.635Z,20.70
2017-11-03T08:48:27.906Z,21.43
2017-11-03T08:50:56.398Z,18.53
2017-11-03T08:53:24.874Z,18.50
2017-11-03T08:55:53.377Z,19.43
2017-11-03T08:58:21.842Z,19.70
2017-11-03T09:00:49.987Z,21.47
2017-11-03T09:03:22.298Z,20.10
2017-11-03T09:05:51.583Z,21.10
2017-11-03T09:08:19.721Z,22.33
2017-11-03T09:10:47.870Z,20.70
2017-11-03T09:13:16.338Z,21.13
2017-11-03T09:15:44.909Z,22.63
2017-11-03T09:18:13.394Z,21.50
2017-11-03T09:20:41.540Z,20.23
2017-11-03T09:23:10.087Z,21.07
2017-11-03T09:25:38.207Z,19.57
2017-11-03T09:28:16.174Z,21.20
2017-11-03T09:30:44.703Z,20.90
2017-11-03T09:33:37.397Z,21.17
2017-11-03T09:36:05.925Z,23.13
2017-11-03T09:38:34.047Z,22.10
2017-11-03T09:41:02.520Z,22.37
2017-11-03T09:43:34.970Z,22.40
2017-11-03T09:46:03.417Z,19.97
2017-11-03T09:48:32.038Z,21.60
2017-11-03T09:51:00.715Z,20.57
2017-11-03T09:53:29.202Z,20.30
2017-11-03T09:55:57.370Z,18.80
2017-11-03T09:58:25.866Z,20.23
2017-11-03T10:00:53.680Z,21.37
2017-11-03T10:03:21.801Z,20.20
2017-11-03T10:05:49.966Z,19.30
2017-11-03T10:08:19.265Z,20.87
2017-11-03T10:10:47.050Z,19.90
2017-11-03T10:13:28.070Z,21.00
2017-11-03T10:15:57.327Z,19.70
2017-11-03T10:18:25.605Z,20.00
2017-11-03T10:20:53.921Z,21.10
2017-11-03T10:23:21.997Z,23.80
2017-11-03T10:25:49.590Z,19.70
2017-11-03T10:28:24.581Z,19.50
2017-11-03T10:30:53.103Z,18.67
2017-11-03T10:33:21.598Z,19.23
2017-11-03T10:35:50.134Z,20.90
2017-11-03T10:38:18.599Z,21.67
2017-11-03T10:40:47.071Z,19.80
2017-11-03T10:43:15.580Z,18.23
2017-11-03T10:45:44.085Z,19.90
2017-11-03T10:48:12.538Z,20.60
2017-11-03T10:50:40.313Z,16.37
2017-11-03T10:53:08.140Z,17.10
2017-11-03T10:55:36.634Z,19.37
2017-11-03T10:58:05.115Z,19.07
2017-11-03T11:00:32.898Z,19.17
2017-11-03T11:03:00.658Z,18.10
2017-11-03T11:05:29.171Z,18.67
2017-11-03T11:07:57.718Z,18.80
2017-11-03T11:10:26.209Z,20.23
2017-11-03T11:12:57.471Z,20.47
2017-11-03T11:15:25.638Z,16.10
2017-11-03T11:17:54.130Z,19.20
2017-11-03T11:20:22.267Z,15.27
2017-11-03T11:22:50.714Z,19.50
2017-11-03T11:25:19.195Z,20.47
2017-11-03T11:27:48.461Z,18.80
2017-11-03T11:30:16.937Z,20.83
2017-11-03T11:32:45.454Z,21.50
2017-11-03T11:35:13.255Z,18.87
2017-11-03T11:37:41.354Z,18.60
2017-11-03T11:40:09.157Z,18.40
2017-11-03T11:42:44.080Z,14.93
2017-11-03T11:45:12.616Z,17.90
2017-11-03T11:47:40.469Z,18.47
2017-11-03T11:50:08.640Z,18.70
2017-11-03T11:52:36.481Z,16.90
2017-11-03T11:55:04.453Z,16.73
2017-11-03T11:57:32.285Z,18.13
2017-11-03T12:00:00.895Z,17.13
2017-11-03T12:02:29.480Z,16.33
2017-11-03T12:04:57.302Z,17.90
2017-11-03T12:07:25.077Z,16.23
2017-11-03T12:09:52.881Z,15.93
2017-11-03T12:12:22.934Z,15.40
2017-11-03T12:14:50.762Z,16.20
2017-11-03T12:17:26.239Z,15.00
2017-11-03T12:19:54.318Z,12.50
2017-11-03T12:22:22.069Z,13.33
2017-11-03T12:24:49.892Z,12.77
2017-11-03T12:27:19.056Z,12.47
2017-11-03T12:29:46.812Z,13.60
2017-11-03T12:32:14.913Z,13.87
2017-11-03T12:34:42.718Z,13.33
2017-11-03T12:37:10.848Z,16.30
2017-11-03T12:39:38.672Z,12.10
2017-11-03T12:42:06.465Z,12.93
2017-11-03T12:44:34.205Z,11.63
2017-11-03T12:47:02.028Z,12.17
2017-11-03T12:49:30.584Z,10.97
2017-11-03T12:51:58.365Z,13.80
2017-11-03T12:54:26.147Z,10.80
2017-11-03T12:56:53.939Z,10.77
2017-11-03T12:59:32.045Z,10.07
2017-11-03T13:01:59.812Z,11.80
2017-11-03T13:04:27.550Z,10.20
2017-11-03T13:06:56.123Z,9.30
2017-11-03T13:09:24.174Z,10.90
2017-11-03T13:11:51.943Z,10.20
2017-11-03T13:17:14.183Z,10.33
2017-11-03T13:19:43.151Z,10.97
2017-11-03T13:22:11.089Z,10.40
2017-11-03T13:24:39.257Z,9.53
2017-11-03T13:27:26.682Z,10.10
2017-11-03T13:29:54.413Z,9.83
2017-11-03T13:32:22.223Z,8.17
2017-11-03T13:34:50.025Z,10.00
2017-11-03T13:37:18.596Z,10.13
2017-11-03T13:39:46.747Z,9.07
2017-11-03T13:42:26.779Z,8.60
2017-11-03T13:44:54.510Z,9.90
2017-11-03T13:47:22.717Z,10.17
2017-11-03T13:49:51.846Z,10.23
2017-11-03T13:52:20.422Z,11.77
2017-11-03T13:54:49.697Z,8.93
2017-11-03T13:57:17.504Z,9.37
2017-11-03T13:59:45.962Z,9.67
2017-11-03T14:02:14.471Z,9.73
2017-11-03T14:04:42.937Z,8.70
2017-11-03T14:07:11.057Z,9.50
2017-11-03T14:09:39.187Z,8.47
2017-11-03T14:12:14.854Z,6.73
2017-11-03T14:14:43.168Z,8.70
2017-11-03T14:17:11.665Z,6.30
2017-11-03T14:19:40.156Z,7.07
2017-11-03T14:22:08.569Z,5.87
2017-11-03T14:24:37.029Z,7.70
2017-11-03T14:27:05.712Z,7.03
2017-11-03T14:29:34.708Z,6.10
2017-11-03T14:32:03.169Z,6.10
2017-11-03T14:34:31.688Z,6.00
2017-11-03T14:37:00.124Z,6.10
2017-11-03T14:39:28.603Z,8.00
2017-11-03T14:41:57.862Z,9.30
2017-11-03T14:44:26.319Z,9.00
2017-11-03T14:46:54.810Z,9.70
2017-11-03T14:49:24.034Z,9.43
2017-11-03T14:51:52.532Z,9.37
2017-11-03T14:54:21.002Z,8.80
2017-11-03T14:56:50.235Z,9.40
2017-11-03T14:59:18.724Z,7.47
2017-11-03T15:01:47.140Z,6.93
2017-11-03T15:04:15.615Z,8.90
2017-11-03T15:06:44.061Z,7.80
2017-11-03T15:09:12.513Z,7.83
2017-11-03T15:11:41.000Z,7.93
2017-11-03T15:14:11.385Z,8.30
2017-11-03T15:16:39.853Z,9.00
2017-11-03T15:19:08.586Z,9.20
2017-11-03T15:21:37.040Z,9.33
2017-11-03T15:24:05.230Z,9.57
2017-11-03T15:26:33.740Z,9.00
2017-11-03T15:29:02.153Z,8.70
2017-11-03T15:31:30.646Z,9.33
2017-11-03T15:33:59.142Z,9.00
2017-11-03T15:36:28.407Z,8.27
2017-11-03T15:38:56.861Z,8.67
2017-11-03T15:41:26.084Z,9.37
2017-11-03T15:43:54.780Z,8.83
2017-11-03T15:49:27.498Z,9.13
2017-11-03T15:51:56.403Z,8.13
2017-11-03T15:54:24.872Z,9.70
2017-11-03T15:56:53.017Z,8.50
2017-11-03T15:59:22.462Z,8.87
2017-11-03T16:01:50.963Z,8.47
2017-11-03T16:04:19.429Z,7.60
2017-11-03T16:06:47.962Z,8.37
2017-11-03T16:09:16.442Z,9.23
2017-11-03T16:12:03.385Z,8.60
2017-11-03T16:14:31.990Z,8.10
2017-11-03T16:17:00.474Z,7.63
2017-11-03T16:19:28.960Z,8.33
2017-11-03T16:21:57.500Z,8.93
2017-11-03T16:24:25.967Z,9.13
2017-11-03T16:26:54.497Z,8.50
2017-11-03T16:29:23.202Z,9.07
2017-11-03T16:31:51.712Z,8.53
2017-11-03T16:34:20.204Z,7.53
2017-11-03T16:36:48.692Z,9.80
2017-11-03T16:39:17.174Z,9.30
2017-11-03T16:41:45.767Z,9.80
2017-11-03T16:44:19.914Z,9.90
2017-11-03T16:46:48.392Z,10.07
2017-11-03T16:49:16.896Z,10.07
2017-11-03T16:51:45.400Z,10.60
2017-11-03T16:54:13.563Z,9.33
2017-11-03T16:56:42.095Z,11.00
2017-11-03T16:59:20.266Z,11.20
2017-11-03T17:01:49.210Z,10.63
2017-11-03T17:04:17.707Z,10.80
2017-11-03T17:06:45.846Z,9.83
2017-11-03T17:09:18.707Z,9.90
2017-11-03T17:11:57.020Z,10.30
2017-11-03T17:14:25.529Z,10.20
2017-11-03T17:16:53.840Z,11.10
2017-11-03T17:19:22.351Z,10.73
2017-11-03T17:21:50.825Z,11.33
2017-11-03T17:24:19.292Z,11.07
2017-11-03T17:26:47.842Z,11.60
2017-11-03T17:29:17.103Z,12.30
2017-11-03T17:31:45.598Z,12.27
2017-11-03T17:34:14.142Z,10.80
2017-11-03T17:36:42.607Z,11.63
2017-11-03T17:39:11.540Z,12.47
2017-11-03T17:41:40.037Z,13.50
2017-11-03T17:44:09.300Z,12.30
2017-11-03T17:46:37.568Z,11.77
2017-11-03T17:49:05.535Z,11.67
2017-11-03T17:51:34.772Z,12.47
2017-11-03T17:54:03.625Z,14.00
2017-11-03T17:56:32.152Z,14.77
2017-11-03T17:59:00.694Z,15.50
2017-11-03T18:01:29.197Z,13.43
2017-11-03T18:03:58.765Z,13.23
2017-11-03T18:06:27.255Z,14.87
2017-11-03T18:08:57.802Z,15.00
2017-11-03T18:11:25.985Z,13.90
2017-11-03T18:13:54.278Z,16.00
2017-11-03T18:16:22.962Z,15.77
2017-11-03T18:19:01.247Z,15.43
2017-11-03T18:21:29.064Z,14.70
2017-11-03T18:23:57.519Z,14.13
2017-11-03T18:26:26.027Z,15.90
2017-11-03T18:28:55.308Z,15.73
2017-11-03T18:31:23.677Z,14.07
2017-11-03T18:33:52.090Z,14.23
2017-11-03T18:36:20.577Z,15.30
2017-11-03T18:38:49.070Z,14.50
2017-11-03T18:41:17.553Z,14.67
2017-11-03T18:43:46.070Z,14.67
2017-11-03T18:46:14.544Z,15.70
2017-11-03T18:48:43.081Z,14.53
2017-11-03T18:51:11.567Z,14.07
2017-11-03T18:53:40.866Z,14.20
2017-11-03T18:56:09.423Z,14.00
2017-11-03T18:58:37.954Z,14.70
2017-11-03T19:01:06.479Z,13.30
2017-11-03T19:03:35.747Z,15.23
2017-11-03T19:09:03.204Z,11.70
2017-11-03T19:11:36.864Z,13.27
2017-11-03T19:14:06.291Z,12.80
2017-11-03T19:16:35.848Z,13.40
2017-11-03T19:19:04.410Z,13.23
2017-11-03T19:21:32.856Z,16.47
2017-11-03T19:24:02.478Z,16.00
2017-11-03T19:26:30.950Z,13.23
2017-11-03T19:34:53.142Z,12.20
2017-11-03T19:37:32.544Z,12.80
2017-11-03T19:40:01.175Z,12.90
2017-11-03T19:42:29.957Z,13.10
2017-11-03T19:44:58.470Z,11.10
2017-11-03T19:47:27.021Z,13.07
2017-11-03T19:49:56.326Z,11.37
2017-11-03T19:52:25.049Z,12.10
2017-11-03T19:54:53.914Z,10.87
2017-11-03T19:57:23.151Z,13.50
2017-11-03T19:59:51.659Z,12.57
2017-11-03T20:02:20.419Z,11.23
2017-11-03T20:04:48.942Z,12.73
2017-11-03T20:07:18.160Z,12.80
2017-11-03T20:09:47.886Z,11.87
2017-11-03T20:12:26.614Z,13.20
2017-11-03T20:14:55.096Z,13.17
2017-11-03T20:17:24.381Z,11.33
2017-11-03T20:19:52.861Z,12.60
2017-11-03T20:22:31.680Z,11.90
2017-11-03T20:25:00.310Z,12.30
2017-11-03T20:27:28.918Z,12.80
2017-11-03T20:29:57.495Z,13.00
2017-11-03T20:32:26.291Z,14.37
2017-11-03T20:34:54.963Z,15.30
2017-11-03T20:37:23.649Z,14.47
2017-11-03T20:39:52.141Z,13.13
2017-11-03T20:42:20.681Z,12.10
2017-11-03T20:44:49.151Z,15.27
2017-11-03T20:47:17.753Z,14.77
2017-11-03T20:49:46.214Z,14.27
2017-11-03T20:52:15.502Z,16.40
2017-11-03T20:54:44.010Z,14.13
2017-11-03T20:57:12.551Z,13.73
2017-11-03T20:59:41.130Z,14.43
2017-11-03T21:02:09.446Z,15.80
2017-11-03T21:04:38.184Z,14.30
2017-11-03T21:07:07.443Z,14.00
2017-11-03T21:09:35.913Z,16.00
2017-11-03T21:12:04.545Z,14.80
2017-11-03T21:14:33.801Z,13.60
2017-11-03T21:17:02.306Z,14.83
2017-11-03T21:19:30.868Z,14.00
2017-11-03T21:21:59.326Z,13.60
2017-11-03T21:24:27.811Z,14.17
2017-11-03T21:26:56.028Z,16.03
2017-11-03T21:29:24.534Z,14.80
2017-11-03T21:31:53.018Z,13.87
2017-11-03T21:34:38.865Z,14.90
2017-11-03T21:37:08.266Z,13.97
2017-11-03T21:39:36.792Z,14.23
2017-11-03T21:42:05.290Z,13.47
2017-11-03T21:44:33.798Z,15.60
2017-11-03T21:47:02.328Z,13.27
2017-11-03T21:49:30.809Z,14.67
2017-11-03T21:51:59.255Z,13.10
2017-11-03T21:54:27.759Z,13.70
2017-11-03T21:56:59.701Z,12.70
2017-11-03T21:59:28.169Z,12.90
2017-11-03T22:01:56.756Z,13.67
2017-11-03T22:04:25.238Z,11.77
2017-11-03T22:06:53.731Z,13.33
2017-11-03T22:09:22.189Z,14.07
2017-11-03T22:11:51.428Z,11.77
2017-11-03T22:14:19.926Z,14.37
2017-11-03T22:16:48.441Z,12.83
2017-11-03T22:19:16.911Z,12.90
2017-11-03T22:21:45.373Z,12.13
2017-11-03T22:24:14.616Z,11.73
2017-11-03T22:26:43.124Z,11.60
2017-11-03T22:29:11.614Z,12.23
2017-11-03T22:31:40.086Z,13.43
2017-11-03T22:34:09.342Z,12.53
2017-11-03T22:36:37.854Z,13.00
2017-11-03T22:39:06.358Z,12.87
2017-11-03T22:41:34.774Z,12.30
2017-11-03T22:44:03.241Z,12.77
2017-11-03T22:46:32.514Z,14.10
2017-11-03T22:49:01.024Z,10.93
2017-11-03T22:51:29.524Z,13.50
2017-11-03T22:53:57.998Z,11.43
2017-11-03T22:56:26.491Z,11.60
2017-11-03T22:58:54.947Z,11.90
2017-11-03T23:01:23.416Z,11.40
2017-11-03T23:03:51.854Z,11.97
2017-11-03T23:06:20.585Z,12.40
2017-11-03T23:08:49.090Z,11.27
2017-11-03T23:11:17.574Z,12.87
2017-11-03T23:13:46.035Z,11.80
2017-11-03T23:16:14.577Z,11.90
2017-11-03T23:18:43.045Z,12.30
2017-11-03T23:21:11.554Z,12.23
2017-11-03T23:23:40.048Z,13.13
2017-11-03T23:26:08.547Z,11.40
2017-11-03T23:28:37.112Z,10.83
2017-11-03T23:31:05.578Z,14.00
2017-11-03T23:33:34.073Z,12.97
2017-11-03T23:36:03.313Z,13.47
2017-11-03T23:38:32.554Z,13.97
2017-11-03T23:41:01.084Z,13.60
2017-11-03T23:43:30.396Z,14.60
2017-11-03T23:45:58.858Z,12.97
2017-11-03T23:48:27.424Z,12.67
2017-11-03T23:50:56.686Z,12.00
2017-11-03T23:53:25.197Z,14.60
2017-11-03T23:55:54.275Z,11.87
2017-11-03T23:58:34.380Z,13.40
